createdAt,value
2016-10-15T00:00:25.422Z,64.25
2016-10-15T00:01:05.976Z,64.15
2016-10-15T00:01:46.507Z,64.05
2016-10-15T00:02:27.044Z,64.05
2016-10-15T00:03:07.634Z,64.34
2016-10-15T00:03:48.176Z,64.15
2016-10-15T00:04:28.764Z,64.05
2016-10-15T00:05:09.301Z,64.05
2016-10-15T00:05:49.839Z,64.34
2016-10-15T00:06:30.388Z,63.76
2016-10-15T00:07:10.928Z,64.15
2016-10-15T00:07:51.522Z,63.95
2016-10-15T00:08:32.109Z,63.67
2016-10-15T00:09:12.653Z,63.76
2016-10-15T00:09:53.196Z,63.67
2016-10-15T00:10:33.785Z,63.48
2016-10-15T00:11:14.376Z,63.48
2016-10-15T00:11:54.964Z,63.76
2016-10-15T00:12:35.511Z,63.57
2016-10-15T00:13:16.053Z,63.48
2016-10-15T00:13:56.641Z,63.67
2016-10-15T00:14:37.232Z,63.67
2016-10-15T00:15:17.820Z,63.48
2016-10-15T00:15:58.395Z,63.57
2016-10-15T00:16:38.946Z,63.48
2016-10-15T00:17:19.482Z,63.57
2016-10-15T00:18:00.023Z,63.57
2016-10-15T00:18:40.605Z,63.57
2016-10-15T00:19:21.187Z,63.76
2016-10-15T00:20:01.772Z,63.57
2016-10-15T00:20:42.316Z,63.57
2016-10-15T00:21:22.900Z,63.76
2016-10-15T00:22:03.439Z,63.67
2016-10-15T00:22:43.986Z,63.57
2016-10-15T00:23:24.575Z,63.67
2016-10-15T00:24:05.116Z,63.57
2016-10-15T00:24:45.660Z,63.57
2016-10-15T00:25:26.240Z,63.57
2016-10-15T00:26:06.829Z,63.57
2016-10-15T00:26:47.378Z,63.86
2016-10-15T00:27:27.919Z,63.57
2016-10-15T00:28:08.461Z,63.76
2016-10-15T00:28:49.046Z,63.67
2016-10-15T00:29:29.629Z,63.86
2016-10-15T00:30:10.180Z,63.86
2016-10-15T00:30:50.764Z,63.57
2016-10-15T00:31:31.305Z,63.57
2016-10-15T00:32:11.854Z,63.57
2016-10-15T00:32:52.437Z,63.57
2016-10-15T00:33:32.973Z,63.67
2016-10-15T00:34:13.506Z,63.57
2016-10-15T00:34:54.094Z,63.67
2016-10-15T00:35:34.628Z,64.15
2016-10-15T00:36:15.171Z,63.76
2016-10-15T00:36:55.717Z,63.48
2016-10-15T00:37:36.257Z,63.48
2016-10-15T00:38:16.802Z,63.57
2016-10-15T00:38:57.344Z,63.67
2016-10-15T00:39:37.892Z,63.48
2016-10-15T00:40:18.438Z,63.57
2016-10-15T00:40:59.019Z,63.57
2016-10-15T05:22:08.082Z,60.85
2016-10-15T05:22:48.972Z,60.17
2016-10-15T05:23:29.732Z,58.83
2016-10-15T05:24:10.551Z,59.57
2016-10-15T05:24:51.427Z,58.8
2016-10-15T05:25:32.011Z,60.05
2016-10-15T05:26:12.596Z,60.05
2016-10-15T05:26:53.134Z,59.86
2016-10-15T05:27:33.899Z,60.82
2016-10-15T05:28:14.622Z,60.72
2016-10-15T05:28:55.193Z,59.76
2016-10-15T05:29:35.726Z,61.3
2016-10-15T05:30:16.264Z,61.58
2016-10-15T05:30:57.108Z,61.2
2016-10-15T05:31:37.948Z,62.04
2016-10-15T05:32:18.533Z,61.65
2016-10-15T05:32:59.076Z,61.55
2016-10-15T05:33:39.907Z,61.36
2016-10-15T05:34:20.649Z,61.65
2016-10-15T05:35:01.227Z,61.36
2016-10-15T05:35:41.764Z,61.65
2016-10-15T05:36:22.305Z,61.55
2016-10-15T05:37:02.841Z,61.65
2016-10-15T05:37:43.370Z,61.46
2016-10-15T05:38:23.903Z,62.52
2016-10-15T05:39:04.443Z,62.61
2016-10-15T05:39:44.982Z,62.42
2016-10-15T05:40:25.524Z,58.96
2016-10-15T05:41:06.060Z,57.4
2016-10-15T05:41:46.597Z,57.88
2016-10-15T05:42:27.118Z,55.96
2016-10-15T05:43:07.656Z,55.38
2016-10-15T05:43:48.239Z,55.86
2016-10-15T05:44:28.832Z,56.34
2016-10-15T05:45:09.363Z,56.44
2016-10-15T05:47:05.912Z,55.26
2016-10-15T05:47:46.454Z,56.98
2016-10-15T05:48:26.983Z,57.46
2016-10-15T05:49:07.519Z,57.28
2016-10-15T05:49:48.059Z,58.23
2016-10-15T05:50:28.601Z,58.52
2016-10-15T05:51:09.137Z,58.59
2016-10-15T05:51:49.673Z,58.87
2016-10-15T05:52:30.209Z,60.03
2016-10-15T05:53:10.750Z,60.03
2016-10-15T05:53:51.287Z,60.22
2016-10-15T05:54:31.820Z,60.67
2016-10-15T05:55:12.345Z,59.71
2016-10-15T05:55:52.892Z,59.42
2016-10-15T05:56:33.438Z,60.47
2016-10-15T05:57:13.971Z,60.47
2016-10-15T05:57:54.504Z,60.86
2016-10-15T05:58:35.040Z,60.86
2016-10-15T05:59:15.573Z,60.57
2016-10-15T05:59:56.114Z,59.77
2016-10-15T06:00:36.638Z,59.9
2016-10-15T06:01:17.170Z,60.38
2016-10-15T06:01:57.711Z,59.97
2016-10-15T06:02:38.248Z,60.64
2016-10-15T06:03:18.783Z,60.64
2016-10-15T06:03:59.318Z,59.48
2016-10-15T06:04:39.869Z,59.3
2016-10-15T06:05:20.397Z,59.2
2016-10-15T06:06:00.936Z,58.81
2016-10-15T06:06:41.470Z,60.44
2016-10-15T06:07:22.008Z,59.48
2016-10-15T06:08:02.549Z,59.97
2016-10-15T06:08:43.088Z,59.87
2016-10-15T06:09:23.634Z,59.77
2016-10-15T06:10:04.163Z,59.75
2016-10-15T06:10:44.696Z,59.68
2016-10-15T06:11:25.238Z,58.59
2016-10-15T06:12:05.773Z,59.58
2016-10-15T06:12:46.312Z,59.94
2016-10-15T06:13:26.850Z,59.17
2016-10-15T06:14:07.383Z,59.75
2016-10-15T06:14:47.923Z,60.32
2016-10-15T06:15:28.472Z,60.03
2016-10-15T06:16:09.004Z,60.03
2016-10-15T06:16:49.544Z,60.54
2016-10-15T06:17:30.083Z,60.41
2016-10-15T06:18:10.626Z,59.55
2016-10-15T06:18:51.163Z,60.51
2016-10-15T06:19:31.839Z,59.94
2016-10-15T06:20:13.515Z,60.89
2016-10-15T06:20:54.107Z,61.47
2016-10-15T06:21:34.658Z,62.33
2016-10-15T06:22:15.196Z,62.26
2016-10-15T06:22:55.740Z,61.66
2016-10-15T06:23:36.278Z,61.66
2016-10-15T06:24:16.817Z,61.76
2016-10-15T06:24:57.353Z,62.71
2016-10-15T06:25:37.887Z,62.55
2016-10-15T06:26:18.417Z,61.66
2016-10-15T06:26:59.137Z,62.9
2016-10-15T06:27:39.675Z,62.52
2016-10-15T06:28:20.518Z,62.62
2016-10-15T06:29:01.051Z,62.33
2016-10-15T06:29:41.655Z,62.23
2016-10-15T06:30:22.188Z,62.71
2016-10-15T06:31:02.731Z,61.94
2016-10-15T06:31:43.264Z,62.62
2016-10-15T06:32:23.796Z,62.23
2016-10-15T06:33:04.328Z,62.23
2016-10-15T06:33:44.948Z,62.65
2016-10-15T06:34:25.504Z,62.52
2016-10-15T06:35:06.068Z,62.9
2016-10-15T06:35:46.606Z,62.71
2016-10-15T06:36:27.143Z,62.81
2016-10-15T06:37:07.673Z,62.71
2016-10-15T06:37:48.200Z,62.33
2016-10-15T06:38:28.732Z,61.08
2016-10-15T06:39:09.270Z,61.94
2016-10-15T06:39:49.809Z,62.43
2016-10-15T06:40:30.345Z,60.99
2016-10-15T06:41:11.159Z,61.76
2016-10-15T06:41:51.701Z,62.71
2016-10-15T06:42:32.240Z,61.21
2016-10-15T06:43:12.771Z,61.18
2016-10-15T06:43:53.296Z,61.37
2016-10-15T06:44:33.831Z,62.43
2016-10-15T06:45:14.368Z,62.52
2016-10-15T06:45:54.898Z,62.52
2016-10-15T06:46:35.439Z,62.9
2016-10-15T06:47:15.982Z,62.23
2016-10-15T06:47:56.523Z,62.9
2016-10-15T06:48:37.064Z,62.71
2016-10-15T06:49:17.594Z,62.62
2016-10-15T06:49:58.135Z,62.33
2016-10-15T06:50:38.666Z,61.57
2016-10-15T06:51:19.242Z,60.99
2016-10-15T06:51:59.774Z,61.57
2016-10-15T06:52:40.309Z,61.4
2016-10-15T06:53:20.840Z,62.04
2016-10-15T06:54:01.380Z,62.04
2016-10-15T06:54:41.915Z,61.85
2016-10-15T06:55:22.452Z,61.47
2016-10-15T06:56:02.988Z,61.66
2016-10-15T06:56:43.577Z,61.57
2016-10-15T06:57:24.115Z,62.04
2016-10-15T06:58:04.647Z,62.43
2016-10-15T06:58:45.169Z,62.52
2016-10-15T06:59:25.712Z,62.71
2016-10-15T07:00:06.236Z,62.46
2016-10-15T07:00:46.778Z,62.9
2016-10-15T07:01:27.311Z,61.66
2016-10-15T07:02:07.893Z,62.81
2016-10-15T07:02:48.432Z,62.43
2016-10-15T07:03:28.977Z,62.52
2016-10-15T07:04:09.511Z,61.76
2016-10-15T07:04:50.041Z,61.85
2016-10-15T07:05:30.581Z,61.57
2016-10-15T07:06:11.113Z,61.57
2016-10-15T07:06:51.652Z,61.66
2016-10-15T07:07:32.196Z,61.37
2016-10-15T07:08:12.730Z,62.14
2016-10-15T07:08:53.272Z,62.62
2016-10-15T07:09:33.805Z,61.94
2016-10-15T07:10:14.342Z,62.62
2016-10-15T07:10:54.887Z,62.81
2016-10-15T07:11:35.685Z,62.9
2016-10-15T07:12:16.215Z,62.71
2016-10-15T07:12:56.751Z,63.29
2016-10-15T07:13:37.285Z,62.23
2016-10-15T07:14:17.814Z,62.33
2016-10-15T07:17:13.518Z,61.11
2016-10-15T07:17:54.049Z,61.4
2016-10-15T07:18:34.588Z,59.01
2016-10-15T07:31:17.632Z,56.79
2016-10-15T07:33:10.262Z,57.08
2016-10-15T07:33:50.840Z,56.89
2016-10-15T07:34:31.429Z,56.79
2016-10-15T07:35:12.004Z,56.41
2016-10-15T07:35:52.573Z,56.7
2016-10-15T07:36:33.155Z,56.7
2016-10-15T07:37:13.731Z,56.41
2016-10-15T07:37:54.301Z,56.41
2016-10-15T07:38:34.883Z,56.7
2016-10-15T07:39:15.459Z,56.12
2016-10-15T07:39:56.040Z,56.31
2016-10-15T07:40:36.619Z,56.22
2016-10-15T07:41:17.207Z,56.22
2016-10-15T07:41:57.787Z,56.89
2016-10-15T07:42:38.367Z,56.7
2016-10-15T07:43:19.076Z,56.7
2016-10-15T07:43:59.707Z,57.15
2016-10-15T07:44:40.333Z,56.89
2016-10-15T07:45:21.256Z,57.46
2016-10-15T07:46:02.214Z,57.28
2016-10-15T07:46:42.808Z,57.28
2016-10-15T07:47:23.389Z,57.46
2016-10-15T07:48:03.967Z,56.98
2016-10-15T07:48:44.555Z,57.28
2016-10-15T07:49:25.143Z,57.46
2016-10-15T07:50:05.715Z,58.23
2016-10-15T07:50:46.291Z,59.58
2016-10-15T07:51:26.886Z,60.72
2016-10-15T07:52:07.477Z,59.19
2016-10-15T07:52:48.059Z,58.71
2016-10-15T07:53:28.642Z,59.29
2016-10-15T07:54:09.219Z,58.91
2016-10-15T07:54:49.801Z,58.52
2016-10-15T07:55:30.385Z,57.37
2016-10-15T07:56:10.966Z,57.56
2016-10-15T07:56:51.552Z,57.65
2016-10-15T07:57:32.135Z,57.85
2016-10-15T07:58:12.713Z,57.82
2016-10-15T07:58:53.296Z,57.72
2016-10-15T07:59:33.881Z,58.11
2016-10-15T08:00:14.464Z,58.49
2016-10-15T08:00:55.041Z,58.39
2016-10-15T08:01:35.588Z,58.65
2016-10-15T08:02:16.123Z,59.16
2016-10-15T08:02:56.658Z,58.75
2016-10-15T08:03:37.185Z,58.65
2016-10-15T08:04:17.722Z,58.75
2016-10-15T08:04:58.254Z,59.71
2016-10-15T08:05:38.792Z,59.13
2016-10-15T08:06:19.322Z,59.61
2016-10-15T08:06:59.849Z,62.42
2016-10-15T08:07:40.394Z,62.33
2016-10-15T08:08:20.924Z,58.84
2016-10-15T08:09:01.452Z,59.04
2016-10-15T08:09:41.989Z,58.84
2016-10-15T08:10:22.525Z,59.61
2016-10-15T08:11:03.062Z,59.23
2016-10-15T08:11:43.594Z,59.52
2016-10-15T08:12:24.124Z,59.8
2016-10-15T08:13:04.663Z,58.84
2016-10-15T08:13:45.196Z,60
2016-10-15T08:14:25.735Z,59.8
2016-10-15T08:15:06.271Z,59.52
2016-10-15T08:15:46.812Z,59.9
2016-10-15T08:16:27.343Z,60
2016-10-15T08:17:07.883Z,60.28
2016-10-15T08:17:48.414Z,59.93
2016-10-15T08:18:28.945Z,59.9
2016-10-15T08:19:09.485Z,59.61
2016-10-15T08:19:50.004Z,58.84
2016-10-15T08:20:30.530Z,59.71
2016-10-15T08:21:11.071Z,58.94
2016-10-15T08:21:51.606Z,59.23
2016-10-15T08:22:32.140Z,58.94
2016-10-15T08:23:12.680Z,59.33
2016-10-15T08:23:53.207Z,59.8
2016-10-15T08:24:33.751Z,60.86
2016-10-15T08:25:14.285Z,60.47
2016-10-15T08:25:54.811Z,60.28
2016-10-15T08:26:35.340Z,60
2016-10-15T08:27:15.872Z,59.9
2016-10-15T08:27:56.418Z,59.8
2016-10-15T08:28:36.952Z,59.64
2016-10-15T08:29:17.483Z,60
2016-10-15T08:29:58.025Z,59.8
2016-10-15T08:30:38.564Z,60.57
2016-10-15T08:31:19.094Z,60.6
2016-10-15T08:31:59.622Z,60.28
2016-10-15T08:32:40.154Z,60.5
2016-10-15T08:33:20.688Z,60.09
2016-10-15T08:34:01.226Z,60.38
2016-10-15T08:34:41.764Z,60.22
2016-10-15T08:35:22.302Z,59.71
2016-10-15T08:36:02.834Z,59.71
2016-10-15T08:36:43.361Z,59.8
2016-10-15T08:37:23.897Z,59.71
2016-10-15T08:38:04.439Z,60.38
2016-10-15T08:38:44.969Z,60.28
2016-10-15T08:39:25.506Z,60.09
2016-10-15T08:40:06.042Z,60.57
2016-10-15T08:40:46.577Z,60.76
2016-10-15T08:41:27.206Z,60.38
2016-10-15T08:42:07.851Z,60.76
2016-10-15T08:42:48.692Z,60.86
2016-10-15T08:43:29.219Z,60.86
2016-10-15T08:44:10.032Z,61.43
2016-10-15T08:44:50.993Z,60.79
2016-10-15T08:45:31.934Z,60.67
2016-10-15T08:46:12.709Z,61.05
2016-10-15T08:46:53.828Z,61.43
2016-10-15T08:47:35.248Z,61.34
2016-10-15T08:48:16.696Z,61.24
2016-10-15T08:48:57.675Z,61.24
2016-10-15T08:49:38.211Z,62.13
2016-10-15T08:50:18.776Z,61.85
2016-10-15T08:50:59.305Z,61.94
2016-10-15T08:51:39.845Z,61.75
2016-10-15T08:52:20.563Z,61.85
2016-10-15T08:53:01.164Z,62.04
2016-10-15T08:53:41.703Z,61.37
2016-10-15T08:54:22.230Z,61.27
2016-10-15T08:55:02.781Z,60.79
2016-10-15T08:55:43.355Z,61.02
2016-10-15T08:56:23.919Z,60.82
2016-10-15T08:57:04.521Z,60.53
2016-10-15T08:57:45.048Z,60.53
2016-10-15T08:58:25.578Z,60.63
2016-10-15T08:59:06.113Z,60.15
2016-10-15T08:59:46.649Z,59.86
2016-10-15T09:00:27.197Z,60.05
2016-10-15T09:01:07.736Z,60.53
2016-10-15T09:01:48.267Z,60.53
2016-10-15T09:02:28.837Z,60.05
2016-10-15T09:03:09.392Z,60.05
2016-10-15T09:03:49.972Z,60.25
2016-10-15T09:04:30.511Z,60.72
2016-10-15T09:05:11.049Z,60.63
2016-10-15T09:05:51.575Z,60.08
2016-10-15T09:06:32.121Z,59.89
2016-10-15T09:07:12.710Z,59.22
2016-10-15T09:07:53.248Z,58.55
2016-10-15T09:08:33.783Z,58.55
2016-10-15T09:09:14.365Z,58.64
2016-10-15T09:09:54.902Z,58.64
2016-10-15T09:10:35.465Z,58.64
2016-10-15T09:11:16.007Z,58.74
2016-10-15T09:11:56.544Z,58.64
2016-10-15T09:12:37.073Z,58.55
2016-10-15T09:13:17.609Z,58.55
2016-10-15T09:13:58.144Z,59.44
2016-10-15T09:14:38.690Z,59.06
2016-10-15T09:15:19.217Z,59.25
2016-10-15T09:15:59.865Z,58.48
2016-10-15T09:16:40.397Z,58.7
2016-10-15T09:17:20.933Z,58.32
2016-10-15T09:18:01.472Z,57.93
2016-10-15T09:18:42.018Z,57.75
2016-10-15T09:19:22.600Z,58.32
2016-10-15T09:20:03.174Z,57.39
2016-10-15T09:20:43.715Z,57.58
2016-10-15T09:21:24.254Z,57.39
2016-10-15T09:22:04.793Z,57.58
2016-10-15T09:22:45.350Z,57.2
2016-10-15T09:23:25.900Z,57.48
2016-10-15T09:24:06.440Z,57.68
2016-10-15T09:24:46.980Z,56.84
2016-10-15T09:25:27.529Z,56.55
2016-10-15T09:26:08.080Z,55.88
2016-10-15T09:26:48.645Z,56.07
2016-10-15T09:27:29.202Z,56.36
2016-10-15T09:28:09.774Z,56.16
2016-10-15T09:30:46.545Z,56
2016-10-15T09:31:27.219Z,56.1
2016-10-15T09:32:07.860Z,55.71
2016-10-15T09:32:48.452Z,55.62
2016-10-15T09:33:29.024Z,55.71
2016-10-15T09:34:09.610Z,55.33
2016-10-15T09:34:50.190Z,55.71
2016-10-15T09:35:30.780Z,55.13
2016-10-15T09:36:11.362Z,55.16
2016-10-15T09:36:51.944Z,55.23
2016-10-15T09:37:32.532Z,55.43
2016-10-15T09:38:13.112Z,55.45
2016-10-15T09:38:53.698Z,55.16
2016-10-15T09:39:34.286Z,55.26
2016-10-15T09:40:14.866Z,55.26
2016-10-15T09:40:55.452Z,55.16
2016-10-15T09:41:36.024Z,55.33
2016-10-15T09:42:16.614Z,55.33
2016-10-15T09:42:57.198Z,55.45
2016-10-15T09:43:37.785Z,55.45
2016-10-15T09:44:18.366Z,55.55
2016-10-15T09:44:58.953Z,55.35
2016-10-15T09:45:39.539Z,55.93
2016-10-15T09:46:20.126Z,56.03
2016-10-15T09:47:00.709Z,55.83
2016-10-15T09:47:41.297Z,55.83
2016-10-15T09:48:21.867Z,55.55
2016-10-15T09:49:02.400Z,56.12
2016-10-15T09:49:42.936Z,55.71
2016-10-15T09:50:23.468Z,55.43
2016-10-15T09:51:04.012Z,54.75
2016-10-15T09:51:44.589Z,54.68
2016-10-15T09:52:25.178Z,54.58
2016-10-15T09:53:05.719Z,54.87
2016-10-15T09:53:46.258Z,55.43
2016-10-15T09:54:26.788Z,55.07
2016-10-15T09:55:07.458Z,54.97
2016-10-15T09:55:48.662Z,55.55
2016-10-15T09:56:29.508Z,55.33
2016-10-15T09:57:10.410Z,55.9
2016-10-15T09:57:51.248Z,55.55
2016-10-15T09:58:32.179Z,55.35
2016-10-15T09:59:12.913Z,55.55
2016-10-15T09:59:53.919Z,55.74
2016-10-15T10:00:34.625Z,55.74
2016-10-15T10:01:15.395Z,55.65
2016-10-15T10:01:55.978Z,55.45
2016-10-15T10:02:36.698Z,55.65
2016-10-15T10:03:17.283Z,55.45
2016-10-15T10:03:58.077Z,55.55
2016-10-15T10:04:38.664Z,55.26
2016-10-15T10:05:19.765Z,55.35
2016-10-15T10:06:00.419Z,55.35
2016-10-15T10:06:41.255Z,55.26
2016-10-15T10:07:22.081Z,55.16
2016-10-15T10:08:02.668Z,55.26
2016-10-15T10:08:43.253Z,55.35
2016-10-15T10:09:23.838Z,55.29
2016-10-15T10:10:04.429Z,56.15
2016-10-15T10:10:45.010Z,55.48
2016-10-15T10:11:25.581Z,55.29
2016-10-15T10:12:06.176Z,55.38
2016-10-15T10:12:46.763Z,55.48
2016-10-15T10:13:28.978Z,55.7
2016-10-15T10:14:09.574Z,54.44
2016-10-15T10:14:50.903Z,55.34
2016-10-15T10:15:35.380Z,49.75
2016-10-15T10:16:18.623Z,51.1
2016-10-15T10:17:02.917Z,48.59
2016-10-15T10:17:51.763Z,48.79
2016-10-15T10:18:32.342Z,50.11
2016-10-15T10:19:12.944Z,50.78
2016-10-15T10:19:53.519Z,50.78
2016-10-15T10:20:34.137Z,51.26
2016-10-15T10:21:14.712Z,51.65
2016-10-15T10:21:55.292Z,51.56
2016-10-15T10:22:35.891Z,51.65
2016-10-15T10:23:16.474Z,51.07
2016-10-15T10:23:57.052Z,51.75
2016-10-15T10:24:37.671Z,51.84
2016-10-15T10:25:18.244Z,52.04
2016-10-15T10:25:58.825Z,52.13
2016-10-15T10:26:39.519Z,52.13
2016-10-15T10:27:20.108Z,51.94
2016-10-15T10:28:00.695Z,52.42
2016-10-15T10:28:41.280Z,53.19
2016-10-15T10:29:21.879Z,52.87
2016-10-15T10:30:02.466Z,53.07
2016-10-15T10:30:43.052Z,52.97
2016-10-15T10:31:23.637Z,52.59
2016-10-15T10:32:04.226Z,51.92
2016-10-15T10:32:44.813Z,52.11
2016-10-15T10:33:25.401Z,52.3
2016-10-15T10:34:05.993Z,52.11
2016-10-15T10:34:46.568Z,52.01
2016-10-15T10:35:27.154Z,52.3
2016-10-15T10:36:07.741Z,52.01
2016-10-15T10:36:48.320Z,52.2
2016-10-15T10:37:28.911Z,52.2
2016-10-15T10:38:09.500Z,52.11
2016-10-15T10:38:50.089Z,52.11
2016-10-15T10:39:30.674Z,52.11
2016-10-15T10:40:11.264Z,52.49
2016-10-15T10:40:51.842Z,52.3
2016-10-15T10:41:32.428Z,52.11
2016-10-15T10:42:13.015Z,52.49
2016-10-15T10:42:53.602Z,52.49
2016-10-15T10:43:34.182Z,52.4
2016-10-15T10:44:14.767Z,52.49
2016-10-15T10:44:55.356Z,52.59
2016-10-15T10:45:35.945Z,52.78
2016-10-15T10:46:16.523Z,52.4
2016-10-15T10:46:57.102Z,53.17
2016-10-15T10:47:37.688Z,53.07
2016-10-15T10:48:18.273Z,52.97
2016-10-15T10:48:58.856Z,53.07
2016-10-15T10:49:39.433Z,53.07
2016-10-15T10:50:20.017Z,52.97
2016-10-15T10:51:00.602Z,52.97
2016-10-15T10:51:41.192Z,53.07
2016-10-15T10:52:21.783Z,53.07
2016-10-15T10:53:02.369Z,53.27
2016-10-15T10:53:43.598Z,53.45
2016-10-15T10:54:24.386Z,53.45
2016-10-15T10:55:05.032Z,53.36
2016-10-15T10:55:45.823Z,53.74
2016-10-15T10:56:26.425Z,53.55
2016-10-15T10:57:07.007Z,53.55
2016-10-15T10:57:47.822Z,53.55
2016-10-15T10:58:28.411Z,53.74
2016-10-15T10:59:08.994Z,53.45
2016-10-15T10:59:49.647Z,53.45
2016-10-15T11:00:30.416Z,53.36
2016-10-15T11:01:10.996Z,53.45
2016-10-15T11:01:51.575Z,53.27
2016-10-15T11:02:32.169Z,53.36
2016-10-15T11:03:12.745Z,53.45
2016-10-15T11:03:53.326Z,53.27
2016-10-15T11:04:33.915Z,53.27
2016-10-15T11:05:14.492Z,53.36
2016-10-15T11:05:55.069Z,53.27
2016-10-15T11:06:35.659Z,53.55
2016-10-15T11:07:16.246Z,53.84
2016-10-15T11:07:56.826Z,53.74
2016-10-15T11:08:37.636Z,53.74
2016-10-15T11:09:18.591Z,53.96
2016-10-15T11:09:59.177Z,54.03
2016-10-15T11:10:39.932Z,54.16
2016-10-15T11:11:20.521Z,54.03
2016-10-15T11:12:01.115Z,53.94
2016-10-15T11:12:41.701Z,54.03
2016-10-15T11:13:22.746Z,54.25
2016-10-15T11:14:03.331Z,54.22
2016-10-15T11:14:43.987Z,54.16
2016-10-15T11:15:24.578Z,54.03
2016-10-15T11:16:05.529Z,54.35
2016-10-15T11:16:46.296Z,53.87
2016-10-15T11:17:26.882Z,54.42
2016-10-15T11:18:07.469Z,54.35
2016-10-15T11:18:48.261Z,54.44
2016-10-15T11:19:28.850Z,54.74
2016-10-15T11:20:09.433Z,54.8
2016-10-15T11:20:50.019Z,54.32
2016-10-15T11:21:30.602Z,54.35
2016-10-15T11:22:11.669Z,54.32
2016-10-15T11:22:52.650Z,54.93
2016-10-15T11:23:33.387Z,54.93
2016-10-15T11:24:13.970Z,54.83
2016-10-15T11:24:54.554Z,54.93
2016-10-15T11:25:35.142Z,54.71
2016-10-15T11:26:15.853Z,54.64
2016-10-15T11:26:56.436Z,54.74
2016-10-15T11:27:37.277Z,54.83
2016-10-15T11:28:18.064Z,54.83
2016-10-15T11:28:58.646Z,54.74
2016-10-15T11:29:39.229Z,54.74
2016-10-15T11:30:19.852Z,54.44
2016-10-15T11:31:00.653Z,54.64
2016-10-15T11:31:41.571Z,54.74
2016-10-15T11:32:22.605Z,54.93
2016-10-15T11:33:03.628Z,54.74
2016-10-15T11:33:44.227Z,54.93
2016-10-15T11:34:24.809Z,54.83
2016-10-15T11:35:05.544Z,54.93
2016-10-15T11:35:46.272Z,54.35
2016-10-15T11:36:26.849Z,54.83
2016-10-15T11:37:07.679Z,54.25
2016-10-15T11:37:48.356Z,54.93
2016-10-15T11:38:29.219Z,54.83
2016-10-15T11:39:09.986Z,54.74
2016-10-15T11:39:50.846Z,54.74
2016-10-15T11:40:31.430Z,54.74
2016-10-15T11:41:12.021Z,55.02
2016-10-15T11:41:52.607Z,54.54
2016-10-15T11:42:33.192Z,54.93
2016-10-15T11:43:13.784Z,54.74
2016-10-15T11:43:54.603Z,55.12
2016-10-15T11:44:35.190Z,54.64
2016-10-15T11:45:16.111Z,54.74
2016-10-15T11:45:56.811Z,54.54
2016-10-15T11:46:37.615Z,54.74
2016-10-15T11:47:18.330Z,55.41
2016-10-15T11:47:59.076Z,55.51
2016-10-15T11:48:39.840Z,55.31
2016-10-15T11:49:20.440Z,55.7
2016-10-15T11:50:01.195Z,55.02
2016-10-15T11:50:41.786Z,55.41
2016-10-15T11:51:22.590Z,55.51
2016-10-15T11:52:03.587Z,55.6
2016-10-15T11:52:44.277Z,55.6
2016-10-15T11:53:24.959Z,55.31
2016-10-15T11:54:05.674Z,55.41
2016-10-15T11:54:46.276Z,55.41
2016-10-15T11:55:26.855Z,55.79
2016-10-15T11:56:07.440Z,55.31
2016-10-15T11:56:48.179Z,54.93
2016-10-15T11:57:28.767Z,55.6
2016-10-15T11:58:09.503Z,55.22
2016-10-15T11:58:50.084Z,55.41
2016-10-15T11:59:30.889Z,55.02
2016-10-15T12:00:11.476Z,56.09
2016-10-15T12:00:52.293Z,55.6
2016-10-15T12:01:32.868Z,55.22
2016-10-15T12:02:13.464Z,55.99
2016-10-15T12:02:54.045Z,56.18
2016-10-15T12:03:34.626Z,55.6
2016-10-15T12:04:15.229Z,55.31
2016-10-15T12:04:56.034Z,55.51
2016-10-15T12:05:36.909Z,55.89
2016-10-15T12:06:17.682Z,55.6
2016-10-15T12:06:58.476Z,55.41
2016-10-15T12:07:39.302Z,55.41
2016-10-15T12:08:19.890Z,55.51
2016-10-15T12:09:00.546Z,55.79
2016-10-15T12:09:41.464Z,55.31
2016-10-15T12:10:22.474Z,55.41
2016-10-15T12:11:03.060Z,55.22
2016-10-15T12:11:43.645Z,55.31
2016-10-15T12:12:24.480Z,55.31
2016-10-15T12:13:05.211Z,55.51
2016-10-15T12:13:46.171Z,55.51
2016-10-15T12:14:26.928Z,56.09
2016-10-15T12:15:07.526Z,55.7
2016-10-15T12:15:48.168Z,55.99
2016-10-15T12:16:28.959Z,55.41
2016-10-15T12:17:09.643Z,55.41
2016-10-15T12:17:50.414Z,55.41
2016-10-15T12:18:31.344Z,55.6
2016-10-15T12:19:12.599Z,55.79
2016-10-15T12:19:53.419Z,55.79
2016-10-15T12:20:34.265Z,55.89
2016-10-15T12:21:14.946Z,55.79
2016-10-15T12:21:55.527Z,55.79
2016-10-15T12:22:36.376Z,55.89
2016-10-15T12:23:16.963Z,55.99
2016-10-15T12:23:57.629Z,56.09
2016-10-15T12:24:38.213Z,55.44
2016-10-15T12:25:18.787Z,55.31
2016-10-15T12:25:59.546Z,55.31
2016-10-15T12:26:40.312Z,55.79
2016-10-15T12:27:21.256Z,55.7
2016-10-15T12:28:01.988Z,55.51
2016-10-15T12:28:43.020Z,55.7
2016-10-15T12:29:24.017Z,55.41
2016-10-15T12:30:04.586Z,55.24
2016-10-15T12:30:45.164Z,55.41
2016-10-15T12:31:25.746Z,55.63
2016-10-15T12:32:06.300Z,55.44
2016-10-15T12:32:46.902Z,55.73
2016-10-15T12:33:27.485Z,55.31
2016-10-15T12:34:08.072Z,55.54
2016-10-15T12:34:48.662Z,55.54
2016-10-15T12:35:29.251Z,55.54
2016-10-15T12:36:09.846Z,55.44
2016-10-15T12:36:50.429Z,56.11
2016-10-15T12:37:31.080Z,55.44
2016-10-15T12:38:11.668Z,55.44
2016-10-15T12:38:52.259Z,54.47
2016-10-15T12:39:32.848Z,53.61
2016-10-15T12:40:13.429Z,51.97
2016-10-15T12:40:54.018Z,51.68
2016-10-15T12:41:34.603Z,52.25
2016-10-15T12:42:15.186Z,52.25
2016-10-15T12:42:55.770Z,52.06
2016-10-15T12:43:36.356Z,52.35
2016-10-15T12:44:16.946Z,52.35
2016-10-15T12:44:57.534Z,52.16
2016-10-15T12:45:38.124Z,52.55
2016-10-15T12:46:18.715Z,52.55
2016-10-15T12:46:59.303Z,52.93
2016-10-15T12:47:39.897Z,52.73
2016-10-15T12:48:20.480Z,52.83
2016-10-15T12:49:01.074Z,53.03
2016-10-15T12:49:41.660Z,53.22
2016-10-15T12:50:22.248Z,53.51
2016-10-15T12:51:02.829Z,53.51
2016-10-15T12:51:43.418Z,53.51
2016-10-15T12:52:24.009Z,53.31
2016-10-15T12:53:04.592Z,53.31
2016-10-15T12:53:45.161Z,53.51
2016-10-15T12:54:25.753Z,53.31
2016-10-15T12:55:06.338Z,53.51
2016-10-15T12:55:46.923Z,53.8
2016-10-15T12:56:27.509Z,53.61
2016-10-15T12:57:08.096Z,53.51
2016-10-15T12:57:48.683Z,53.89
2016-10-15T12:58:29.264Z,53.99
2016-10-15T12:59:09.846Z,53.89
2016-10-15T12:59:50.453Z,53.89
2016-10-15T13:00:31.042Z,53.89
2016-10-15T13:01:11.643Z,53.89
2016-10-15T13:01:52.230Z,54.09
2016-10-15T13:02:32.830Z,54.18
2016-10-15T13:03:13.422Z,54.09
2016-10-15T13:03:54.009Z,53.99
2016-10-15T13:04:34.587Z,54.66
2016-10-15T13:05:15.176Z,54.76
2016-10-15T13:05:55.765Z,54.96
2016-10-15T13:06:36.377Z,54.74
2016-10-15T13:07:16.947Z,54.76
2016-10-15T13:07:57.536Z,55.22
2016-10-15T13:08:38.119Z,54.93
2016-10-15T13:09:18.712Z,54.93
2016-10-15T13:09:59.313Z,55.12
2016-10-15T13:10:39.911Z,55.12
2016-10-15T13:11:20.500Z,55.22
2016-10-15T13:12:01.086Z,55.12
2016-10-15T13:12:41.661Z,55.41
2016-10-15T13:13:22.249Z,55.41
2016-10-15T13:14:02.883Z,55.22
2016-10-15T13:14:44.665Z,55.51
2016-10-15T13:15:26.213Z,55.7
2016-10-15T13:16:07.786Z,55.22
2016-10-15T13:16:48.955Z,55.79
2016-10-15T13:17:29.882Z,55.89
2016-10-15T13:18:10.751Z,55.89
2016-10-15T13:18:51.606Z,55.99
2016-10-15T13:19:32.577Z,55.99
2016-10-15T13:20:13.161Z,55.89
2016-10-15T13:20:53.747Z,56.37
2016-10-15T13:21:34.336Z,56.47
2016-10-15T13:22:14.924Z,56.27
2016-10-15T13:22:55.554Z,56.09
2016-10-15T13:23:36.134Z,55.99
2016-10-15T13:24:16.724Z,55.79
2016-10-15T13:24:57.305Z,56.27
2016-10-15T13:25:37.897Z,56.66
2016-10-15T13:26:18.476Z,56.37
2016-10-15T13:26:59.166Z,56.47
2016-10-15T13:27:39.751Z,56.47
2016-10-15T13:28:20.341Z,56.66
2016-10-15T13:29:00.930Z,56.37
2016-10-15T13:29:41.513Z,56.18
2016-10-15T13:30:22.091Z,55.99
2016-10-15T13:31:02.659Z,55.31
2016-10-15T13:31:43.247Z,55.12
2016-10-15T13:32:23.836Z,54.93
2016-10-15T13:33:04.425Z,54.83
2016-10-15T13:33:45.014Z,54.35
2016-10-15T13:34:25.604Z,54.25
2016-10-15T13:35:06.192Z,53.77
2016-10-15T13:35:46.787Z,53.29
2016-10-15T13:36:27.364Z,53.29
2016-10-15T13:37:07.958Z,53.29
2016-10-15T13:37:48.532Z,53.39
2016-10-15T13:38:29.115Z,53.29
2016-10-15T13:39:09.698Z,53.39
2016-10-15T13:39:50.284Z,53.48
2016-10-15T13:40:30.871Z,53.39
2016-10-15T13:41:11.451Z,53.48
2016-10-15T13:41:52.024Z,53.67
2016-10-15T13:42:32.729Z,53.48
2016-10-15T13:43:13.701Z,53.45
2016-10-15T13:43:54.277Z,53.58
2016-10-15T13:44:35.043Z,53.55